createdAt,value
2022-09-04T00:01:17.999Z,12.70
2022-09-04T00:03:51.782Z,12.50
2022-09-04T00:06:24.873Z,12.30
2022-09-04T00:09:04.634Z,12.10
2022-09-04T00:11:47.568Z,11.90
2022-09-04T00:14:19.480Z,11.80
2022-09-04T00:16:55.822Z,11.60
2022-09-04T00:19:32.117Z,11.60
2022-09-04T00:22:01.745Z,11.60
2022-09-04T00:24:33.273Z,11.60
2022-09-04T00:27:08.990Z,11.60
2022-09-04T00:29:45.138Z,11.70
2022-09-04T00:32:25.401Z,11.70
2022-09-04T00:35:05.251Z,11.80
2022-09-04T00:37:38.082Z,11.90
2022-09-04T00:40:10.747Z,11.90
2022-09-04T00:43:15.056Z,11.80
2022-09-04T00:46:07.999Z,11.70
2022-09-04T00:49:11.458Z,11.60
2022-09-04T00:51:50.281Z,11.50
2022-09-04T00:54:42.786Z,11.40
2022-09-04T00:57:41.699Z,11.40
2022-09-04T01:00:37.604Z,11.40
2022-09-04T01:03:33.173Z,11.40
2022-09-04T01:06:17.353Z,11.40
2022-09-04T01:09:22.018Z,11.40
2022-09-04T01:12:02.533Z,11.40
2022-09-04T01:14:40.166Z,11.50
2022-09-04T01:17:17.241Z,11.50
2022-09-04T01:19:55.436Z,11.50
2022-09-04T01:22:41.199Z,11.60
2022-09-04T01:25:26.745Z,11.60
2022-09-04T01:28:03.453Z,11.70
2022-09-04T01:30:35.452Z,11.80
2022-09-04T01:33:11.230Z,11.60
2022-09-04T01:35:45.237Z,11.60
2022-09-04T01:38:18.176Z,11.40
2022-09-04T01:40:52.516Z,11.40
2022-09-04T01:43:23.117Z,11.20
2022-09-04T01:46:11.507Z,11.10
2022-09-04T01:48:45.674Z,11.00
2022-09-04T01:51:22.272Z,11.00
2022-09-04T01:54:07.865Z,11.00
2022-09-04T01:56:45.238Z,11.10
2022-09-04T01:59:26.397Z,11.10
2022-09-04T02:01:59.282Z,11.10
2022-09-04T02:04:32.059Z,11.10
2022-09-04T02:07:11.001Z,11.10
2022-09-04T02:09:49.853Z,11.00
2022-09-04T02:12:36.022Z,11.00
2022-09-04T02:15:13.436Z,10.90
2022-09-04T02:17:46.707Z,10.80
2022-09-04T02:20:24.891Z,10.90
2022-09-04T02:23:05.204Z,10.90
2022-09-04T02:25:40.264Z,10.90
2022-09-04T02:28:23.986Z,10.80
2022-09-04T02:31:00.197Z,10.80
2022-09-04T02:33:35.456Z,10.70
2022-09-04T02:36:08.448Z,10.70
2022-09-04T02:38:47.296Z,10.60
2022-09-04T02:41:24.110Z,10.50
2022-09-04T02:44:25.306Z,10.50
2022-09-04T02:47:05.936Z,10.40
2022-09-04T02:49:40.904Z,10.40
2022-09-04T02:52:19.878Z,10.50
2022-09-04T02:55:01.621Z,10.50
2022-09-04T02:57:40.387Z,10.60
2022-09-04T03:00:14.976Z,10.60
2022-09-04T03:02:52.646Z,10.60
2022-09-04T03:05:22.564Z,10.70
2022-09-04T03:07:59.469Z,10.80
2022-09-04T03:10:31.776Z,10.90
2022-09-04T03:13:05.977Z,10.90
2022-09-04T03:15:40.736Z,10.70
2022-09-04T03:18:17.786Z,10.70
2022-09-04T03:20:52.286Z,10.60
2022-09-04T03:23:23.539Z,10.50
2022-09-04T03:26:19.422Z,10.50
2022-09-04T03:29:01.993Z,10.50
2022-09-04T03:31:35.965Z,10.50
2022-09-04T03:34:31.906Z,10.60
2022-09-04T03:37:22.858Z,10.60
2022-09-04T03:40:02.969Z,10.60
2022-09-04T03:42:42.133Z,10.50
2022-09-04T03:45:20.832Z,10.50
2022-09-04T03:48:06.011Z,10.50
2022-09-04T03:50:45.245Z,10.60
2022-09-04T03:53:19.881Z,10.70
2022-09-04T03:56:21.453Z,10.70
2022-09-04T03:59:01.308Z,10.60
2022-09-04T04:01:41.541Z,10.50
2022-09-04T04:04:34.237Z,10.50
2022-09-04T04:07:12.434Z,10.50
2022-09-04T04:09:53.297Z,10.50
2022-09-04T04:12:43.600Z,10.60
2022-09-04T04:15:33.752Z,10.50
2022-09-04T04:18:22.752Z,10.60
2022-09-04T04:21:01.181Z,10.90
2022-09-04T04:23:57.863Z,11.10
2022-09-04T04:26:40.671Z,11.20
2022-09-04T04:29:42.109Z,11.20
2022-09-04T04:32:29.551Z,11.10
2022-09-04T04:35:11.400Z,11.10
2022-09-04T04:37:51.759Z,11.10
2022-09-04T04:40:32.296Z,10.90
2022-09-04T04:43:07.405Z,10.90
2022-09-04T04:45:50.707Z,11.00
2022-09-04T04:48:54.913Z,11.00
2022-09-04T04:51:41.260Z,10.90
2022-09-04T04:54:26.577Z,10.80
2022-09-04T04:57:05.079Z,10.60
2022-09-04T04:59:41.043Z,10.60
2022-09-04T05:02:17.052Z,10.50
2022-09-04T05:04:52.339Z,10.50
2022-09-04T05:07:36.034Z,10.50
2022-09-04T05:10:12.953Z,10.60
2022-09-04T05:12:55.619Z,10.70
2022-09-04T05:15:30.058Z,10.90
2022-09-04T05:18:04.509Z,11.40
2022-09-04T05:20:42.138Z,11.80
2022-09-04T05:23:24.941Z,12.20
2022-09-04T05:26:03.939Z,12.60
2022-09-04T05:28:41.434Z,13.10
2022-09-04T05:31:18.006Z,13.40
2022-09-04T05:33:55.104Z,13.70
2022-09-04T05:36:33.753Z,13.70
2022-09-04T05:39:10.582Z,14.00
2022-09-04T05:41:52.101Z,14.20
2022-09-04T05:44:46.725Z,14.40
2022-09-04T05:47:28.625Z,14.40
2022-09-04T05:50:12.980Z,14.50
2022-09-04T05:53:02.035Z,14.80
2022-09-04T05:55:54.484Z,15.00
2022-09-04T05:58:43.859Z,14.70
2022-09-04T06:01:27.733Z,14.60
2022-09-04T06:04:30.270Z,14.70
2022-09-04T06:07:06.409Z,15.10
2022-09-04T06:09:47.067Z,15.20
2022-09-04T06:12:30.716Z,15.40
2022-09-04T06:15:14.912Z,15.60
2022-09-04T06:18:00.625Z,16.10
2022-09-04T06:20:59.047Z,16.60
2022-09-04T06:23:43.397Z,16.90
2022-09-04T06:26:29.605Z,16.90
2022-09-04T06:29:15.745Z,16.60
2022-09-04T06:32:08.869Z,16.80
2022-09-04T06:35:00.894Z,17.60
2022-09-04T06:37:38.363Z,17.70
2022-09-04T06:40:21.889Z,18.20
2022-09-04T06:43:07.016Z,18.30
2022-09-04T06:45:48.369Z,18.10
2022-09-04T06:48:28.926Z,18.40
2022-09-04T06:51:08.072Z,18.60
2022-09-04T06:53:42.576Z,18.20
2022-09-04T06:56:35.431Z,18.60
2022-09-04T06:59:35.061Z,18.90
2022-09-04T07:02:14.030Z,18.70
2022-09-04T07:04:53.241Z,18.50
2022-09-04T07:07:31.329Z,18.90
2022-09-04T07:10:03.606Z,19.20
2022-09-04T07:12:56.431Z,19.90
2022-09-04T07:15:41.941Z,20.30
2022-09-04T07:18:22.014Z,20.90
2022-09-04T07:21:03.035Z,21.20
2022-09-04T07:23:41.201Z,21.50
2022-09-04T07:26:20.477Z,21.30
2022-09-04T07:29:27.872Z,21.30
2022-09-04T07:32:01.700Z,21.70
2022-09-04T07:34:38.828Z,21.80
2022-09-04T07:37:14.830Z,21.20
2022-09-04T07:39:50.143Z,20.70
2022-09-04T07:42:22.483Z,20.80
2022-09-04T07:45:05.946Z,21.10
2022-09-04T07:47:40.467Z,21.00
2022-09-04T07:50:11.845Z,21.20
2022-09-04T07:52:54.697Z,21.40
2022-09-04T07:55:36.399Z,21.30
2022-09-04T07:58:28.767Z,21.30
2022-09-04T08:01:19.493Z,21.10
2022-09-04T08:04:06.375Z,20.60
2022-09-04T08:06:41.574Z,21.20
2022-09-04T08:09:37.303Z,21.90
2022-09-04T08:12:53.276Z,21.80
2022-09-04T08:15:31.097Z,21.70
2022-09-04T08:18:19.980Z,21.70
2022-09-04T08:20:56.714Z,22.10
2022-09-04T08:23:41.511Z,22.00
2022-09-04T08:26:17.897Z,22.60
2022-09-04T08:29:03.792Z,22.80
2022-09-04T08:31:37.256Z,22.70
2022-09-04T08:34:30.402Z,22.10
2022-09-04T08:37:11.329Z,22.10
2022-09-04T08:39:47.544Z,21.80
2022-09-04T08:42:54.067Z,22.30
2022-09-04T08:45:51.541Z,22.90
2022-09-04T08:48:56.680Z,23.20
2022-09-04T08:52:00.092Z,22.20
2022-09-04T08:55:00.624Z,22.30
2022-09-04T08:58:16.189Z,22.90
2022-09-04T09:01:10.607Z,23.00
2022-09-04T09:04:14.933Z,23.40
2022-09-04T09:07:32.844Z,23.80
2022-09-04T09:10:34.976Z,24.00
2022-09-04T09:13:33.567Z,23.20
2022-09-04T09:16:30.328Z,21.70
2022-09-04T09:19:19.486Z,22.50
2022-09-04T09:21:56.825Z,22.70
2022-09-04T09:25:11.248Z,23.20
2022-09-04T09:28:18.414Z,23.20
2022-09-04T09:31:12.327Z,23.30
2022-09-04T09:34:11.441Z,23.00
2022-09-04T09:37:03.316Z,23.20
2022-09-04T09:40:04.376Z,23.10
2022-09-04T09:42:51.904Z,22.30
2022-09-04T09:46:03.295Z,22.70
2022-09-04T09:49:00.899Z,22.90
2022-09-04T09:52:13.912Z,22.90
2022-09-04T09:55:19.785Z,23.20
2022-09-04T09:58:35.245Z,23.70
2022-09-04T10:01:19.801Z,23.40
2022-09-04T10:04:22.325Z,23.30
2022-09-04T10:07:36.964Z,24.10
2022-09-04T10:10:32.813Z,24.30
2022-09-04T10:13:16.598Z,23.70
2022-09-04T10:16:24.609Z,24.00
2022-09-04T10:19:18.098Z,23.30
2022-09-04T10:22:15.586Z,23.20
2022-09-04T10:25:19.081Z,23.00
2022-09-04T10:28:21.937Z,24.00
2022-09-04T10:31:13.909Z,24.30
2022-09-04T10:34:00.992Z,24.70
2022-09-04T10:36:40.460Z,24.00
2022-09-04T10:39:40.732Z,23.50
2022-09-04T10:42:19.839Z,23.50
2022-09-04T10:45:17.676Z,24.00
2022-09-04T10:48:15.273Z,24.30
2022-09-04T10:51:01.863Z,24.50
2022-09-04T10:54:04.243Z,23.50
2022-09-04T10:56:45.088Z,24.20
2022-09-04T10:59:46.562Z,24.60
2022-09-04T11:02:47.289Z,24.70
2022-09-04T11:05:26.646Z,25.20
2022-09-04T11:08:19.535Z,24.60
2022-09-04T11:11:15.202Z,23.60
2022-09-04T11:14:03.646Z,23.20
2022-09-04T11:16:52.698Z,23.10
2022-09-04T11:19:48.572Z,23.30
2022-09-04T11:22:44.438Z,23.30
2022-09-04T11:26:13.945Z,22.70
2022-09-04T11:29:22.813Z,23.20
2022-09-04T11:32:21.148Z,23.90
2022-09-04T11:35:19.450Z,24.50
2022-09-04T11:38:04.244Z,24.70
2022-09-04T11:41:15.550Z,24.30
2022-09-04T11:44:12.724Z,24.00
2022-09-04T11:47:01.727Z,24.40
2022-09-04T11:50:05.337Z,24.90
2022-09-04T11:52:50.642Z,25.10
2022-09-04T11:55:35.278Z,25.40
2022-09-04T11:58:28.520Z,25.50
2022-09-04T12:01:04.016Z,25.10
2022-09-04T12:04:07.313Z,24.90
2022-09-04T12:06:46.213Z,24.50
2022-09-04T12:09:51.379Z,24.10
2022-09-04T12:12:49.565Z,24.40
2022-09-04T12:15:32.532Z,24.80
2022-09-04T12:18:33.616Z,24.90
2022-09-04T12:21:37.734Z,24.70
2022-09-04T12:24:48.002Z,24.30
2022-09-04T12:27:39.086Z,24.80
2022-09-04T12:30:15.762Z,25.00
2022-09-04T12:33:22.344Z,25.50
2022-09-04T12:36:22.036Z,25.70
2022-09-04T12:39:29.988Z,25.20
2022-09-04T12:42:04.507Z,25.10
2022-09-04T12:44:44.342Z,25.20
2022-09-04T12:47:28.380Z,25.30
2022-09-04T12:50:18.955Z,25.20
2022-09-04T12:53:19.141Z,25.10
2022-09-04T12:56:00.981Z,25.20
2022-09-04T12:58:50.273Z,25.30
2022-09-04T13:01:32.141Z,25.00
2022-09-04T13:04:12.761Z,25.00
2022-09-04T13:06:53.919Z,24.90
2022-09-04T13:09:31.173Z,24.90
2022-09-04T13:12:12.164Z,25.20
2022-09-04T13:15:04.886Z,25.20
2022-09-04T13:17:44.908Z,25.40
2022-09-04T13:20:20.862Z,25.60
2022-09-04T13:23:04.407Z,25.10
2022-09-04T13:25:42.230Z,25.40
2022-09-04T13:28:20.835Z,25.10
2022-09-04T13:31:00.048Z,24.80
2022-09-04T13:33:41.946Z,25.00
2022-09-04T13:36:28.095Z,25.10
2022-09-04T13:39:28.172Z,25.30
2022-09-04T13:42:17.816Z,25.40
2022-09-04T13:45:06.539Z,25.00
2022-09-04T13:47:47.105Z,24.90
2022-09-04T13:50:25.759Z,24.60
2022-09-04T13:52:59.472Z,24.50
2022-09-04T13:55:32.068Z,24.50
2022-09-04T13:58:10.869Z,24.30
2022-09-04T14:00:45.776Z,24.00
2022-09-04T14:03:25.104Z,23.70
2022-09-04T14:05:53.900Z,23.40
2022-09-04T14:08:23.416Z,23.40
2022-09-04T14:11:09.097Z,23.60
2022-09-04T14:13:52.553Z,23.80
2022-09-04T14:16:24.030Z,23.90
2022-09-04T14:19:17.294Z,23.90
2022-09-04T14:22:02.404Z,23.80
2022-09-04T14:24:38.433Z,23.80
2022-09-04T14:27:15.066Z,24.00
2022-09-04T14:29:55.695Z,24.40
2022-09-04T14:32:32.170Z,24.80
2022-09-04T14:35:10.368Z,24.90
2022-09-04T14:37:55.058Z,25.20
2022-09-04T14:40:28.455Z,25.30
2022-09-04T14:43:07.039Z,25.30
2022-09-04T14:45:59.869Z,25.30
2022-09-04T14:48:29.013Z,25.20
2022-09-04T14:51:00.084Z,25.20
2022-09-04T14:53:31.737Z,25.20
2022-09-04T14:56:21.212Z,25.20
2022-09-04T14:58:55.536Z,25.00
2022-09-04T15:01:24.952Z,24.70
2022-09-04T15:03:58.549Z,24.70
2022-09-04T15:06:32.915Z,24.60
2022-09-04T15:09:23.776Z,24.40
2022-09-04T15:12:21.066Z,24.30
2022-09-04T15:14:50.372Z,24.20
2022-09-04T15:17:28.340Z,23.90
2022-09-04T15:20:01.524Z,24.20
2022-09-04T15:22:37.508Z,24.50
2022-09-04T15:25:09.092Z,24.40
2022-09-04T15:27:47.381Z,24.30
2022-09-04T15:30:22.583Z,24.00
2022-09-04T15:32:51.588Z,23.90
2022-09-04T15:35:24.036Z,23.70
2022-09-04T15:38:05.972Z,23.60
2022-09-04T15:40:38.938Z,23.50
2022-09-04T15:43:18.507Z,23.50
2022-09-04T15:45:55.023Z,23.50
2022-09-04T15:48:31.204Z,23.90
2022-09-04T15:51:05.489Z,24.10
2022-09-04T15:53:35.699Z,24.20
2022-09-04T15:56:09.374Z,24.40
2022-09-04T15:58:49.262Z,24.40
2022-09-04T16:01:23.726Z,24.50
2022-09-04T16:04:07.176Z,24.50
2022-09-04T16:06:43.586Z,24.60
2022-09-04T16:09:21.529Z,24.60
2022-09-04T16:11:59.708Z,24.70
2022-09-04T16:14:31.543Z,24.60
2022-09-04T16:17:03.297Z,24.60
2022-09-04T16:19:37.014Z,24.30
2022-09-04T16:22:11.471Z,24.30
2022-09-04T16:24:44.719Z,24.40
2022-09-04T16:27:15.165Z,24.30
2022-09-04T16:29:48.761Z,24.20
2022-09-04T16:32:23.633Z,24.20
2022-09-04T16:34:56.328Z,24.20
2022-09-04T16:37:30.969Z,24.00
2022-09-04T16:40:06.743Z,23.90
2022-09-04T16:42:42.293Z,23.90
2022-09-04T16:45:14.955Z,23.70
2022-09-04T16:47:48.438Z,23.70
2022-09-04T16:50:24.838Z,23.60
2022-09-04T16:53:13.487Z,23.50
2022-09-04T16:55:48.010Z,23.50
2022-09-04T16:58:50.079Z,23.40
2022-09-04T17:01:23.051Z,23.30
2022-09-04T17:04:13.355Z,23.20
2022-09-04T17:06:56.316Z,23.10
2022-09-04T17:09:30.130Z,23.00
2022-09-04T17:12:06.968Z,22.90
2022-09-04T17:14:39.715Z,22.70
2022-09-04T17:17:30.574Z,22.40
2022-09-04T17:20:10.381Z,22.30
2022-09-04T17:28:59.461Z,22.10
2022-09-04T17:29:10.495Z,21.90
2022-09-04T17:29:11.492Z,21.80
2022-09-04T17:31:41.197Z,21.60
2022-09-04T17:40:16.403Z,21.50
2022-09-04T17:40:48.715Z,21.30
2022-09-04T17:40:48.836Z,21.20
2022-09-04T17:43:24.382Z,21.00
2022-09-04T17:46:06.537Z,20.90
2022-09-04T17:48:41.293Z,20.70
2022-09-04T17:51:15.522Z,20.60
2022-09-04T17:53:51.505Z,20.50
2022-09-04T17:56:24.182Z,20.30
2022-09-04T17:58:58.724Z,20.20
2022-09-04T18:01:31.989Z,20.00
2022-09-04T18:04:21.698Z,19.80
2022-09-04T18:06:55.652Z,19.60
2022-09-04T18:09:31.890Z,19.40
2022-09-04T18:12:09.285Z,19.20
2022-09-04T18:14:45.249Z,19.00
2022-09-04T18:17:20.950Z,18.90
2022-09-04T18:19:50.300Z,18.80
2022-09-04T18:22:31.904Z,18.60
2022-09-04T18:25:16.074Z,18.50
2022-09-04T18:28:09.642Z,18.40
2022-09-04T18:36:08.380Z,18.30
2022-09-04T18:37:17.229Z,18.50
2022-09-04T18:37:19.450Z,18.50
2022-09-04T18:39:36.375Z,18.50
2022-09-04T18:50:25.839Z,18.70
2022-09-04T18:50:28.384Z,18.90
2022-09-04T18:50:45.746Z,19.10
2022-09-04T18:53:53.757Z,19.30
2022-09-04T18:56:27.410Z,19.20
2022-09-04T18:59:03.081Z,19.30
2022-09-04T19:01:40.885Z,19.30
2022-09-04T19:04:40.790Z,19.30
2022-09-04T19:07:13.098Z,19.30
2022-09-04T19:09:56.367Z,19.30
2022-09-04T19:12:35.732Z,19.30
2022-09-04T19:15:36.704Z,19.30
2022-09-04T19:18:13.188Z,19.30
2022-09-04T19:20:48.119Z,19.30
2022-09-04T19:23:24.058Z,19.20
2022-09-04T19:25:55.214Z,19.20
2022-09-04T19:28:27.077Z,19.20
2022-09-04T19:31:01.309Z,19.20
2022-09-04T19:33:38.974Z,19.30
2022-09-04T19:36:13.659Z,19.30
2022-09-04T19:45:55.827Z,19.30
2022-09-04T19:46:05.542Z,19.40
2022-09-04T19:46:09.034Z,19.40
2022-09-04T19:47:43.006Z,19.40
2022-09-04T19:53:21.408Z,19.30
2022-09-04T19:53:37.680Z,19.30
2022-09-04T19:56:20.101Z,19.30
2022-09-04T19:58:54.126Z,19.30
2022-09-04T20:01:26.943Z,19.20
2022-09-04T20:04:00.720Z,19.20
2022-09-04T20:06:32.633Z,19.10
2022-09-04T20:09:08.176Z,19.10
2022-09-04T20:11:40.666Z,19.10
2022-09-04T20:14:20.252Z,19.10
2022-09-04T20:17:02.227Z,19.20
2022-09-04T20:19:38.723Z,19.10
2022-09-04T20:22:15.361Z,19.20
2022-09-04T20:25:01.153Z,19.10
2022-09-04T20:27:35.768Z,19.10
2022-09-04T20:30:08.229Z,19.00
2022-09-04T20:32:43.661Z,18.90
2022-09-04T20:35:33.105Z,18.80
2022-09-04T20:38:12.493Z,18.80
2022-09-04T20:40:43.221Z,18.90
2022-09-04T20:43:22.577Z,18.80
2022-09-04T20:48:43.308Z,18.90
2022-09-04T20:52:58.596Z,18.70
2022-09-04T20:52:59.018Z,18.70
2022-09-04T20:55:19.607Z,18.70
2022-09-04T21:03:10.061Z,18.40
2022-09-04T21:03:18.288Z,18.30
2022-09-04T21:04:08.690Z,18.30
2022-09-04T21:06:44.868Z,18.30
2022-09-04T21:09:42.284Z,18.20
2022-09-04T21:12:31.258Z,18.20
2022-09-04T21:15:10.181Z,18.20
2022-09-04T21:18:00.591Z,18.20
2022-09-04T21:21:00.137Z,18.10
2022-09-04T21:24:12.375Z,18.10
2022-09-04T21:27:08.806Z,18.20
2022-09-04T21:30:12.113Z,18.00
2022-09-04T21:32:49.900Z,17.40
2022-09-04T21:35:23.441Z,17.00
2022-09-04T21:38:00.001Z,16.70
2022-09-04T21:41:01.437Z,16.60
2022-09-04T21:43:53.521Z,16.50
2022-09-04T21:46:52.542Z,16.40
2022-09-04T21:49:52.559Z,16.30
2022-09-04T21:52:45.987Z,16.40
2022-09-04T21:57:43.077Z,16.40
2022-09-04T22:02:35.694Z,16.30
2022-09-04T22:02:40.141Z,16.10
2022-09-04T22:04:47.422Z,16.00
2022-09-04T22:10:39.904Z,16.10
2022-09-04T22:13:33.775Z,16.00
2022-09-04T22:13:50.422Z,16.30
2022-09-04T22:16:41.876Z,16.10
2022-09-04T22:19:25.303Z,15.90
2022-09-04T22:22:03.983Z,16.00
2022-09-04T22:25:07.274Z,16.30
2022-09-04T22:28:08.805Z,16.30
2022-09-04T22:30:54.277Z,16.00
2022-09-04T22:34:15.078Z,15.80
2022-09-04T22:37:00.497Z,15.60
2022-09-04T22:39:55.206Z,15.40
2022-09-04T22:42:48.932Z,15.50
2022-09-04T22:45:43.831Z,15.60
2022-09-04T22:48:44.030Z,15.70
2022-09-04T22:51:29.981Z,15.50
2022-09-04T22:54:18.706Z,15.20
2022-09-04T22:56:54.211Z,15.20
2022-09-04T22:59:53.087Z,15.10
2022-09-04T23:03:06.655Z,14.90
2022-09-04T23:06:29.420Z,15.00
2022-09-04T23:13:44.080Z,15.00
2022-09-04T23:13:58.087Z,15.00
2022-09-04T23:15:08.024Z,15.10
2022-09-04T23:19:39.141Z,15.00
2022-09-04T23:26:33.282Z,15.10
2022-09-04T23:26:50.541Z,15.10
2022-09-04T23:27:28.276Z,15.20
2022-09-04T23:30:26.410Z,15.30
2022-09-04T23:33:38.492Z,15.10
2022-09-04T23:36:39.938Z,15.00
2022-09-04T23:39:29.806Z,15.00
2022-09-04T23:42:11.549Z,14.80
2022-09-04T23:45:08.786Z,14.70
2022-09-04T23:47:52.222Z,14.60
2022-09-04T23:50:32.729Z,14.50
2022-09-04T23:53:15.521Z,14.40
2022-09-04T23:55:56.296Z,14.30
2022-09-04T23:58:58.111Z,14.40
